Landingville, Pennsylvania
Current Conditions -  °F | °C
As of 11:42 AM on Monday 26 Jan 2015 (Local Time) from KRDG Reporting Station
Light Snow Light Snow  
Wind Chill:   Ceiling: 3200
Heat Index: 21°   Visibility: 2mi
Dew Point: 15°   Wind: 13mph
Humidity: 78%   Direction: 20°NNE
Pressure: 29.86"   Gusts: NA
Location:  40.63°N, 76.12°W
Report Text: KRDG 261642Z 02011KT 2SM -SN SCT021 OVC032 M06/M09 A2986 RMK AO2 TWR VIS 2 1/2 P0000 T10611094
Loading
Personal Weather Stations






























Interactive Weather Map New forecast layout! Learn more

10-Day Weather Forecast

Advertisements
Track Severe Weather on mobile